sensor_id;sensor_type;location;lat;lon;timestamp;pressure;altitude;pressure_sealevel;temperature;humidity
23899;BME280;20544;50.018;20.010;2022-07-29T00:01:53;99119.23;;;17.52;99.09
23899;BME280;20544;50.018;20.010;2022-07-29T00:05:10;99120.28;;;17.51;99.04
23899;BME280;20544;50.018;20.010;2022-07-29T00:08:26;99124.45;;;17.47;99.30
23899;BME280;20544;50.018;20.010;2022-07-29T00:11:43;99117.47;;;17.39;100.00
23899;BME280;20544;50.018;20.010;2022-07-29T00:14:59;99122.67;;;17.34;100.00
23899;BME280;20544;50.018;20.010;2022-07-29T00:18:16;99119.98;;;17.34;100.00
23899;BME280;20544;50.018;20.010;2022-07-29T00:21:32;99119.59;;;17.30;100.00
23899;BME280;20544;50.018;20.010;2022-07-29T00:24:48;99120.27;;;17.26;100.00
23899;BME280;20544;50.018;20.010;2022-07-29T00:28:05;99121.08;;;17.26;100.00
23899;BME280;20544;50.018;20.010;2022-07-29T00:31:21;99122.34;;;17.24;100.00
23899;BME280;20544;50.018;20.010;2022-07-29T00:34:37;99121.33;;;17.18;100.00
23899;BME280;20544;50.018;20.010;2022-07-29T00:38:08;99119.97;;;17.09;100.00
23899;BME280;20544;50.018;20.010;2022-07-29T00:41:24;99113.59;;;17.03;100.00
23899;BME280;20544;50.018;20.010;2022-07-29T00:44:41;99121.24;;;17.00;100.00
23899;BME280;20544;50.018;20.010;2022-07-29T00:47:58;99110.16;;;16.96;100.00
23899;BME280;20544;50.018;20.010;2022-07-29T00:51:15;99108.71;;;16.93;100.00
23899;BME280;20544;50.018;20.010;2022-07-29T00:54:35;99105.45;;;16.91;100.00
23899;BME280;20544;50.018;20.010;2022-07-29T00:57:54;99112.22;;;16.87;100.00
23899;BME280;20544;50.018;20.010;2022-07-29T01:01:13;99110.20;;;16.82;99.33
23899;BME280;20544;50.018;20.010;2022-07-29T01:04:28;99099.09;;;16.79;99.75
23899;BME280;20544;50.018;20.010;2022-07-29T01:07:44;99098.92;;;16.74;99.43
23899;BME280;20544;50.018;20.010;2022-07-29T01:11:01;99112.31;;;16.74;100.00
23899;BME280;20544;50.018;20.010;2022-07-29T01:14:18;99113.52;;;16.78;100.00
23899;BME280;20544;50.018;20.010;2022-07-29T01:17:41;99114.14;;;16.80;100.00
23899;BME280;20544;50.018;20.010;2022-07-29T01:25:09;99098.08;;;16.73;100.00
23899;BME280;20544;50.018;20.010;2022-07-29T01:32:21;99097.09;;;16.68;100.00
23899;BME280;20544;50.018;20.010;2022-07-29T01:35:41;99089.88;;;16.68;100.00
23899;BME280;20544;50.018;20.010;2022-07-29T01:39:05;99087.64;;;16.65;99.87
23899;BME280;20544;50.018;20.010;2022-07-29T01:42:26;99100.19;;;16.64;100.00
23899;BME280;20544;50.018;20.010;2022-07-29T01:45:46;99091.34;;;16.64;100.00
23899;BME280;20544;50.018;20.010;2022-07-29T01:49:08;99086.41;;;16.61;99.13
23899;BME280;20544;50.018;20.010;2022-07-29T01:52:31;99098.17;;;16.60;99.00
23899;BME280;20544;50.018;20.010;2022-07-29T01:55:48;99103.13;;;16.56;98.66
23899;BME280;20544;50.018;20.010;2022-07-29T01:59:07;99102.30;;;16.56;98.71
23899;BME280;20544;50.018;20.010;2022-07-29T02:02:25;99093.86;;;16.52;98.35
23899;BME280;20544;50.018;20.010;2022-07-29T02:05:44;99097.38;;;16.53;98.46
23899;BME280;20544;50.018;20.010;2022-07-29T02:09:01;99087.92;;;16.50;98.66
23899;BME280;20544;50.018;20.010;2022-07-29T02:12:19;99087.08;;;16.49;98.64
23899;BME280;20544;50.018;20.010;2022-07-29T02:15:37;99080.73;;;16.44;98.26
23899;BME280;20544;50.018;20.010;2022-07-29T02:18:55;99080.75;;;16.37;98.57
23899;BME280;20544;50.018;20.010;2022-07-29T02:22:12;99092.30;;;16.38;98.61
23899;BME280;20544;50.018;20.010;2022-07-29T02:25:29;99087.97;;;16.37;97.60
23899;BME280;20544;50.018;20.010;2022-07-29T02:28:46;99080.75;;;16.37;97.50
23899;BME280;20544;50.018;20.010;2022-07-29T02:32:05;99070.48;;;16.34;96.93
23899;BME280;20544;50.018;20.010;2022-07-29T02:35:23;99067.81;;;16.27;97.02
23899;BME280;20544;50.018;20.010;2022-07-29T02:38:43;99061.47;;;16.22;97.75
23899;BME280;20544;50.018;20.010;2022-07-29T02:42:10;99061.69;;;16.20;97.48
23899;BME280;20544;50.018;20.010;2022-07-29T02:45:29;99059.20;;;16.18;97.29
23899;BME280;20544;50.018;20.010;2022-07-29T02:48:48;99056.34;;;16.13;97.80
23899;BME280;20544;50.018;20.010;2022-07-29T02:52:08;99063.97;;;16.10;97.42
23899;BME280;20544;50.018;20.010;2022-07-29T02:55:29;99057.41;;;16.06;98.25
23899;BME280;20544;50.018;20.010;2022-07-29T02:58:53;99065.65;;;16.04;98.43
23899;BME280;20544;50.018;20.010;2022-07-29T03:02:10;99064.44;;;16.00;98.87
23899;BME280;20544;50.018;20.010;2022-07-29T03:05:27;99063.38;;;16.01;99.29
23899;BME280;20544;50.018;20.010;2022-07-29T03:08:46;99061.55;;;16.01;99.67
23899;BME280;20544;50.018;20.010;2022-07-29T03:12:05;99059.71;;;15.95;99.65
23899;BME280;20544;50.018;20.010;2022-07-29T03:15:24;99059.71;;;15.95;99.79
23899;BME280;20544;50.018;20.010;2022-07-29T03:18:41;99058.06;;;15.94;99.75
23899;BME280;20544;50.018;20.010;2022-07-29T03:21:59;99053.52;;;15.95;100.00
23899;BME280;20544;50.018;20.010;2022-07-29T03:25:17;99064.03;;;15.96;100.00
23899;BME280;20544;50.018;20.010;2022-07-29T03:28:33;99057.44;;;15.92;99.90
23899;BME280;20544;50.018;20.010;2022-07-29T03:31:50;99046.34;;;15.89;100.00
23899;BME280;20544;50.018;20.010;2022-07-29T03:35:08;99057.03;;;15.89;100.00
23899;BME280;20544;50.018;20.010;2022-07-29T03:38:26;99058.28;;;15.86;100.00
23899;BME280;20544;50.018;20.010;2022-07-29T03:41:46;99053.98;;;15.85;100.00
23899;BME280;20544;50.018;20.010;2022-07-29T03:45:08;99064.64;;;15.78;100.00
23899;BME280;20544;50.018;20.010;2022-07-29T03:48:27;99063.22;;;15.76;100.00
23899;BME280;20544;50.018;20.010;2022-07-29T03:51:44;99065.70;;;15.71;100.00
23899;BME280;20544;50.018;20.010;2022-07-29T03:55:01;99059.51;;;15.70;100.00
23899;BME280;20544;50.018;20.010;2022-07-29T03:58:20;99070.61;;;15.74;100.00
23899;BME280;20544;50.018;20.010;2022-07-29T04:01:40;99072.89;;;15.77;100.00
23899;BME280;20544;50.018;20.010;2022-07-29T04:04:57;99071.45;;;15.74;100.00
23899;BME280;20544;50.018;20.010;2022-07-29T04:08:13;99076.17;;;15.72;100.00
23899;BME280;20544;50.018;20.010;2022-07-29T04:11:29;99076.80;;;15.74;100.00
23899;BME280;20544;50.018;20.010;2022-07-29T04:14:47;99083.80;;;15.82;100.00
23899;BME280;20544;50.018;20.010;2022-07-29T04:18:04;99082.97;;;15.81;100.00
23899;BME280;20544;50.018;20.010;2022-07-29T04:21:20;99087.28;;;15.82;100.00
23899;BME280;20544;50.018;20.010;2022-07-29T04:24:36;99084.42;;;15.84;100.00
23899;BME280;20544;50.018;20.010;2022-07-29T04:27:52;99077.84;;;15.87;100.00
23899;BME280;20544;50.018;20.010;2022-07-29T04:31:15;99081.95;;;15.89;100.00
23899;BME280;20544;50.018;20.010;2022-07-29T04:34:33;99072.87;;;15.97;100.00
23899;BME280;20544;50.018;20.010;2022-07-29T04:37:50;99073.45;;;16.06;100.00
23899;BME280;20544;50.018;20.010;2022-07-29T04:41:06;99078.19;;;16.10;100.00
23899;BME280;20544;50.018;20.010;2022-07-29T04:44:24;99073.23;;;16.07;99.25
23899;BME280;20544;50.018;20.010;2022-07-29T04:47:42;99069.54;;;16.08;99.62
23899;BME280;20544;50.018;20.010;2022-07-29T04:50:58;99067.27;;;16.12;99.20
23899;BME280;20544;50.018;20.010;2022-07-29T04:54:15;99067.23;;;16.18;99.15
23899;BME280;20544;50.018;20.010;2022-07-29T04:57:32;99060.00;;;16.26;98.76
23899;BME280;20544;50.018;20.010;2022-07-29T05:00:49;99060.00;;;16.32;98.88
23899;BME280;20544;50.018;20.010;2022-07-29T05:04:05;99061.42;;;16.35;97.55
23899;BME280;20544;50.018;20.010;2022-07-29T05:07:22;99060.35;;;16.43;97.74
23899;BME280;20544;50.018;20.010;2022-07-29T05:10:38;99060.70;;;16.53;97.58
23899;BME280;20544;50.018;20.010;2022-07-29T05:13:54;99060.88;;;16.58;95.43
23899;BME280;20544;50.018;20.010;2022-07-29T05:17:10;99066.00;;;16.66;95.63
23899;BME280;20544;50.018;20.010;2022-07-29T05:20:26;99066.95;;;16.79;95.79
23899;BME280;20544;50.018;20.010;2022-07-29T05:23:44;99070.40;;;16.93;96.05
23899;BME280;20544;50.018;20.010;2022-07-29T05:27:00;99075.45;;;17.08;93.84
23899;BME280;20544;50.018;20.010;2022-07-29T05:30:16;99062.38;;;17.18;93.48
23899;BME280;20544;50.018;20.010;2022-07-29T05:33:32;99068.09;;;17.28;92.93
23899;BME280;20544;50.018;20.010;2022-07-29T05:36:49;99064.89;;;17.38;92.42
23899;BME280;20544;50.018;20.010;2022-07-29T05:40:07;99064.78;;;17.52;92.19
23899;BME280;20544;50.018;20.010;2022-07-29T05:43:24;99066.73;;;17.63;91.43
23899;BME280;20544;50.018;20.010;2022-07-29T05:46:40;99069.29;;;17.76;90.58
23899;BME280;20544;50.018;20.010;2022-07-29T05:49:57;99072.22;;;17.93;91.92
23899;BME280;20544;50.018;20.010;2022-07-29T05:53:13;99072.02;;;18.14;89.68
23899;BME280;20544;50.018;20.010;2022-07-29T05:56:30;99071.50;;;18.23;87.79
23899;BME280;20544;50.018;20.010;2022-07-29T05:59:46;99075.97;;;18.30;86.87
23899;BME280;20544;50.018;20.010;2022-07-29T06:03:02;99077.16;;;18.34;87.23
23899;BME280;20544;50.018;20.010;2022-07-29T06:06:19;99070.07;;;18.39;86.49
23899;BME280;20544;50.018;20.010;2022-07-29T06:09:35;99083.10;;;18.54;87.03
23899;BME280;20544;50.018;20.010;2022-07-29T06:12:51;99078.91;;;18.58;85.00
23899;BME280;20544;50.018;20.010;2022-07-29T06:16:07;99070.98;;;18.64;85.30
23899;BME280;20544;50.018;20.010;2022-07-29T06:19:26;99075.00;;;18.73;84.69
23899;BME280;20544;50.018;20.010;2022-07-29T06:22:42;99076.55;;;18.81;84.08
23899;BME280;20544;50.018;20.010;2022-07-29T06:25:58;99072.05;;;18.93;85.04
23899;BME280;20544;50.018;20.010;2022-07-29T06:29:15;99066.69;;;19.05;84.52
23899;BME280;20544;50.018;20.010;2022-07-29T06:32:32;99077.00;;;19.20;84.42
23899;BME280;20544;50.018;20.010;2022-07-29T06:35:50;99072.70;;;19.31;83.15
23899;BME280;20544;50.018;20.010;2022-07-29T06:39:07;99075.75;;;19.46;83.00
23899;BME280;20544;50.018;20.010;2022-07-29T06:42:26;99081.74;;;19.60;82.48
23899;BME280;20544;50.018;20.010;2022-07-29T06:45:42;99095.30;;;19.65;82.45
23899;BME280;20544;50.018;20.010;2022-07-29T06:49:00;99083.96;;;19.75;82.59
23899;BME280;20544;50.018;20.010;2022-07-29T06:52:16;99085.86;;;19.86;81.59
23899;BME280;20544;50.018;20.010;2022-07-29T06:55:35;99082.78;;;19.95;82.31
23899;BME280;20544;50.018;20.010;2022-07-29T06:58:51;99078.34;;;20.00;81.45
23899;BME280;20544;50.018;20.010;2022-07-29T07:02:09;99080.64;;;20.20;83.14
23899;BME280;20544;50.018;20.010;2022-07-29T07:05:25;99085.08;;;20.27;80.89
23899;BME280;20544;50.018;20.010;2022-07-29T07:08:41;99083.41;;;20.38;81.40
23899;BME280;20544;50.018;20.010;2022-07-29T07:11:58;99081.06;;;20.41;80.77
23899;BME280;20544;50.018;20.010;2022-07-29T07:15:14;99075.71;;;20.58;80.65
23899;BME280;20544;50.018;20.010;2022-07-29T07:18:32;99082.83;;;20.64;79.46
23899;BME280;20544;50.018;20.010;2022-07-29T07:21:51;99075.08;;;20.80;81.89
23899;BME280;20544;50.018;20.010;2022-07-29T07:25:11;99080.09;;;21.05;81.74
23899;BME280;20544;50.018;20.010;2022-07-29T07:28:28;99090.49;;;21.13;79.66
23899;BME280;20544;50.018;20.010;2022-07-29T07:31:44;99092.09;;;21.14;78.60
23899;BME280;20544;50.018;20.010;2022-07-29T07:35:02;99087.38;;;21.22;79.41
23899;BME280;20544;50.018;20.010;2022-07-29T07:38:20;99087.86;;;21.36;78.72
23899;BME280;20544;50.018;20.010;2022-07-29T07:41:36;99084.77;;;21.44;78.03
23899;BME280;20544;50.018;20.010;2022-07-29T07:44:53;99093.84;;;21.55;77.49
23899;BME280;20544;50.018;20.010;2022-07-29T07:48:11;99092.30;;;21.59;76.77
23899;BME280;20544;50.018;20.010;2022-07-29T07:51:27;99088.50;;;21.77;76.96
23899;BME280;20544;50.018;20.010;2022-07-29T07:54:44;99087.42;;;21.95;76.40
23899;BME280;20544;50.018;20.010;2022-07-29T07:58:00;99090.31;;;22.33;74.66
23899;BME280;20544;50.018;20.010;2022-07-29T08:01:16;99082.86;;;22.62;74.08
23899;BME280;20544;50.018;20.010;2022-07-29T08:04:33;99078.78;;;22.87;72.97
23899;BME280;20544;50.018;20.010;2022-07-29T08:07:49;99081.00;;;23.22;73.52
23899;BME280;20544;50.018;20.010;2022-07-29T08:11:06;99080.61;;;23.41;69.57
23899;BME280;20544;50.018;20.010;2022-07-29T08:14:22;99074.31;;;23.68;70.28
23899;BME280;20544;50.018;20.010;2022-07-29T08:17:38;99084.53;;;24.03;69.04
23899;BME280;20544;50.018;20.010;2022-07-29T08:20:55;99088.98;;;24.25;67.39
23899;BME280;20544;50.018;20.010;2022-07-29T08:24:12;99078.47;;;24.44;67.31
23899;BME280;20544;50.018;20.010;2022-07-29T08:27:50;99082.53;;;24.42;66.26
23899;BME280;20544;50.018;20.010;2022-07-29T08:31:07;99091.52;;;24.52;66.57
23899;BME280;20544;50.018;20.010;2022-07-29T08:34:23;99085.04;;;24.64;65.16
23899;BME280;20544;50.018;20.010;2022-07-29T08:37:39;99091.31;;;24.75;65.41
23899;BME280;20544;50.018;20.010;2022-07-29T08:40:56;99079.11;;;24.72;65.22
23899;BME280;20544;50.018;20.010;2022-07-29T08:44:16;99090.28;;;25.07;65.22
23899;BME280;20544;50.018;20.010;2022-07-29T08:47:35;99092.99;;;25.01;63.22
23899;BME280;20544;50.018;20.010;2022-07-29T08:50:54;99082.67;;;25.34;64.18
23899;BME280;20544;50.018;20.010;2022-07-29T08:54:11;99079.95;;;25.65;64.83
23899;BME280;20544;50.018;20.010;2022-07-29T08:57:33;99079.92;;;25.86;61.14
23899;BME280;20544;50.018;20.010;2022-07-29T09:00:52;99094.23;;;26.18;64.43
23899;BME280;20544;50.018;20.010;2022-07-29T09:04:12;99081.95;;;26.36;62.36
23899;BME280;20544;50.018;20.010;2022-07-29T09:07:34;99089.76;;;26.47;59.72
23899;BME280;20544;50.018;20.010;2022-07-29T09:10:52;99079.69;;;26.53;59.15
23899;BME280;20544;50.018;20.010;2022-07-29T09:14:13;99086.94;;;26.68;57.75
23899;BME280;20544;50.018;20.010;2022-07-29T09:17:47;99080.80;;;26.47;57.78
23899;BME280;20544;50.018;20.010;2022-07-29T09:21:08;99086.39;;;26.66;58.96
23899;BME280;20544;50.018;20.010;2022-07-29T09:24:47;99083.23;;;26.48;58.87
23899;BME280;20544;50.018;20.010;2022-07-29T09:28:14;99080.12;;;26.71;58.93
23899;BME280;20544;50.018;20.010;2022-07-29T09:31:38;99078.20;;;26.76;58.25
23899;BME280;20544;50.018;20.010;2022-07-29T09:39:05;99074.30;;;26.88;57.94
23899;BME280;20544;50.018;20.010;2022-07-29T09:42:31;99060.20;;;26.86;58.96
23899;BME280;20544;50.018;20.010;2022-07-29T09:45:49;99057.59;;;27.05;59.04
23899;BME280;20544;50.018;20.010;2022-07-29T09:49:11;99067.47;;;26.95;56.72
23899;BME280;20544;50.018;20.010;2022-07-29T09:52:28;99047.30;;;26.96;59.93
23899;BME280;20544;50.018;20.010;2022-07-29T09:55:52;99056.89;;;26.89;58.00
23899;BME280;20544;50.018;20.010;2022-07-29T09:59:09;99046.94;;;26.74;58.54
23899;BME280;20544;50.018;20.010;2022-07-29T10:02:33;99047.48;;;26.71;57.72
23899;BME280;20544;50.018;20.010;2022-07-29T10:06:06;99050.50;;;26.64;58.65
23899;BME280;20544;50.018;20.010;2022-07-29T10:09:26;99048.66;;;26.54;57.71
23899;BME280;20544;50.018;20.010;2022-07-29T10:12:53;99047.34;;;26.46;58.83
23899;BME280;20544;50.018;20.010;2022-07-29T10:16:13;99039.03;;;26.72;59.33
23899;BME280;20544;50.018;20.010;2022-07-29T10:19:34;99031.16;;;26.71;58.21
23899;BME280;20544;50.018;20.010;2022-07-29T10:22:52;99025.42;;;26.77;58.31
23899;BME280;20544;50.018;20.010;2022-07-29T10:26:08;99019.63;;;26.89;58.13
23899;BME280;20544;50.018;20.010;2022-07-29T10:29:28;99016.71;;;26.80;56.74
23899;BME280;20544;50.018;20.010;2022-07-29T10:36:44;99028.59;;;26.90;57.76
23899;BME280;20544;50.018;20.010;2022-07-29T10:40:07;99021.52;;;26.89;57.39
23899;BME280;20544;50.018;20.010;2022-07-29T10:43:37;99017.26;;;27.12;57.12
23899;BME280;20544;50.018;20.010;2022-07-29T10:46:59;99010.98;;;27.11;57.59
23899;BME280;20544;50.018;20.010;2022-07-29T10:50:17;99006.93;;;27.09;57.28
23899;BME280;20544;50.018;20.010;2022-07-29T10:53:50;98997.77;;;27.00;57.65
23899;BME280;20544;50.018;20.010;2022-07-29T10:57:21;98996.09;;;27.04;58.24
23899;BME280;20544;50.018;20.010;2022-07-29T11:00:53;99004.65;;;26.92;58.54
23899;BME280;20544;50.018;20.010;2022-07-29T11:04:11;98998.52;;;26.76;57.80
23899;BME280;20544;50.018;20.010;2022-07-29T11:07:30;99008.45;;;26.51;58.09
23899;BME280;20544;50.018;20.010;2022-07-29T11:10:49;98988.28;;;26.57;58.54
23899;BME280;20544;50.018;20.010;2022-07-29T11:14:08;99008.16;;;26.53;57.99
23899;BME280;20544;50.018;20.010;2022-07-29T11:17:28;98985.06;;;26.50;58.76
23899;BME280;20544;50.018;20.010;2022-07-29T11:20:48;98980.41;;;26.56;59.53
23899;BME280;20544;50.018;20.010;2022-07-29T11:24:19;98989.63;;;26.60;60.89
23899;BME280;20544;50.018;20.010;2022-07-29T11:27:41;98987.19;;;26.58;59.99
23899;BME280;20544;50.018;20.010;2022-07-29T11:31:04;98997.91;;;26.39;58.42
23899;BME280;20544;50.018;20.010;2022-07-29T11:34:35;98984.64;;;26.32;59.54
23899;BME280;20544;50.018;20.010;2022-07-29T11:38:27;98979.09;;;26.48;59.92
23899;BME280;20544;50.018;20.010;2022-07-29T11:41:48;98965.64;;;26.67;60.10
23899;BME280;20544;50.018;20.010;2022-07-29T11:45:11;98969.69;;;26.75;59.42
23899;BME280;20544;50.018;20.010;2022-07-29T11:48:31;98966.44;;;26.68;58.77
23899;BME280;20544;50.018;20.010;2022-07-29T11:51:56;98963.02;;;26.57;60.15
23899;BME280;20544;50.018;20.010;2022-07-29T11:55:18;98965.78;;;26.46;59.54
23899;BME280;20544;50.018;20.010;2022-07-29T11:58:39;98954.15;;;26.41;59.51
23899;BME280;20544;50.018;20.010;2022-07-29T12:01:56;98959.38;;;26.32;59.18
23899;BME280;20544;50.018;20.010;2022-07-29T12:05:15;98953.72;;;26.23;59.34
23899;BME280;20544;50.018;20.010;2022-07-29T12:08:40;98951.00;;;26.23;60.13
23899;BME280;20544;50.018;20.010;2022-07-29T12:12:00;98952.64;;;26.19;59.63
23899;BME280;20544;50.018;20.010;2022-07-29T12:15:18;98957.31;;;26.13;59.36
23899;BME280;20544;50.018;20.010;2022-07-29T12:18:39;98941.27;;;26.12;60.77
23899;BME280;20544;50.018;20.010;2022-07-29T12:22:06;98937.75;;;26.11;60.87
23899;BME280;20544;50.018;20.010;2022-07-29T12:25:24;98937.20;;;26.14;61.84
23899;BME280;20544;50.018;20.010;2022-07-29T12:28:45;98936.38;;;26.14;61.62
23899;BME280;20544;50.018;20.010;2022-07-29T12:32:04;98927.68;;;26.12;61.25
23899;BME280;20544;50.018;20.010;2022-07-29T12:35:33;98931.27;;;26.07;60.04
23899;BME280;20544;50.018;20.010;2022-07-29T12:38:53;98923.91;;;26.08;61.29
23899;BME280;20544;50.018;20.010;2022-07-29T12:42:15;98922.54;;;26.05;59.92
23899;BME280;20544;50.018;20.010;2022-07-29T12:45:35;98917.14;;;26.00;59.84
23899;BME280;20544;50.018;20.010;2022-07-29T12:48:54;98906.27;;;26.00;59.48
23899;BME280;20544;50.018;20.010;2022-07-29T12:52:28;98907.91;;;26.01;60.15
23899;BME280;20544;50.018;20.010;2022-07-29T12:55:47;98910.88;;;26.05;62.08
23899;BME280;20544;50.018;20.010;2022-07-29T12:59:17;98899.45;;;26.08;60.96
23899;BME280;20544;50.018;20.010;2022-07-29T13:02:40;98893.19;;;26.12;62.29
23899;BME280;20544;50.018;20.010;2022-07-29T13:05:59;98889.93;;;26.10;60.35
23899;BME280;20544;50.018;20.010;2022-07-29T13:09:40;98889.42;;;26.08;59.80
23899;BME280;20544;50.018;20.010;2022-07-29T13:13:08;98889.42;;;26.08;59.84
23899;BME280;20544;50.018;20.010;2022-07-29T13:16:29;98886.68;;;26.03;59.85
23899;BME280;20544;50.018;20.010;2022-07-29T13:19:49;98892.11;;;26.03;60.41
23899;BME280;20544;50.018;20.010;2022-07-29T13:23:07;98883.45;;;26.01;59.30
23899;BME280;20544;50.018;20.010;2022-07-29T13:26:29;98882.64;;;26.06;60.60
23899;BME280;20544;50.018;20.010;2022-07-29T13:29:51;98883.41;;;26.11;60.12
23899;BME280;20544;50.018;20.010;2022-07-29T13:33:09;98879.35;;;26.09;60.64
23899;BME280;20544;50.018;20.010;2022-07-29T13:36:25;98869.28;;;26.09;59.99
23899;BME280;20544;50.018;20.010;2022-07-29T13:39:45;98872.53;;;26.11;60.49
23899;BME280;20544;50.018;20.010;2022-07-29T13:43:04;98867.35;;;26.15;59.17
23899;BME280;20544;50.018;20.010;2022-07-29T13:46:29;98856.44;;;26.20;58.63
23899;BME280;20544;50.018;20.010;2022-07-29T13:49:48;98856.44;;;26.20;59.08
23899;BME280;20544;50.018;20.010;2022-07-29T13:56:10;98846.95;;;26.18;59.17
23899;BME280;20544;50.018;20.010;2022-07-29T13:59:39;98838.80;;;26.18;59.38
23899;BME280;20544;50.018;20.010;2022-07-29T14:03:04;98845.57;;;26.20;59.49
23899;BME280;20544;50.018;20.010;2022-07-29T14:25:00;98832.88;;;26.05;57.69
23899;BME280;20544;50.018;20.010;2022-07-29T14:28:22;98831.55;;;26.03;57.78
23899;BME280;20544;50.018;20.010;2022-07-29T14:31:39;98830.16;;;26.05;58.58
23899;BME280;20544;50.018;20.010;2022-07-29T14:34:58;98819.30;;;26.05;59.13
23899;BME280;20544;50.018;20.010;2022-07-29T14:38:15;98814.73;;;26.06;58.62
23899;BME280;20544;50.018;20.010;2022-07-29T14:41:39;98815.23;;;26.08;59.09
23899;BME280;20544;50.018;20.010;2022-07-29T14:48:07;98805.47;;;26.02;59.85
23899;BME280;20544;50.018;20.010;2022-07-29T14:51:27;98794.09;;;25.99;60.02
23899;BME280;20544;50.018;20.010;2022-07-29T14:54:48;98787.59;;;25.95;59.83
23899;BME280;20544;50.018;20.010;2022-07-29T14:58:28;98789.25;;;25.91;60.09
23899;BME280;20544;50.018;20.010;2022-07-29T15:05:27;98808.59;;;25.84;60.83
23899;BME280;20544;50.018;20.010;2022-07-29T15:08:48;98809.69;;;25.83;60.69
23899;BME280;20544;50.018;20.010;2022-07-29T15:12:05;98812.95;;;25.80;61.34
23899;BME280;20544;50.018;20.010;2022-07-29T15:15:27;98815.41;;;25.77;60.73
23899;BME280;20544;50.018;20.010;2022-07-29T15:18:44;98827.66;;;25.74;61.41
23899;BME280;20544;50.018;20.010;2022-07-29T15:22:01;98823.88;;;25.70;61.21
23899;BME280;20544;50.018;20.010;2022-07-29T15:25:18;98821.45;;;25.68;62.00
23899;BME280;20544;50.018;20.010;2022-07-29T15:28:35;98818.49;;;25.65;61.81
23899;BME280;20544;50.018;20.010;2022-07-29T15:31:52;98809.80;;;25.63;62.03
23899;BME280;20544;50.018;20.010;2022-07-29T15:35:11;98814.69;;;25.61;62.41
23899;BME280;20544;50.018;20.010;2022-07-29T15:38:28;98813.89;;;25.60;62.57
23899;BME280;20544;50.018;20.010;2022-07-29T15:41:47;98809.55;;;25.59;62.86
23899;BME280;20544;50.018;20.010;2022-07-29T15:45:05;98814.18;;;25.59;63.29
23899;BME280;20544;50.018;20.010;2022-07-29T15:48:25;98812.84;;;25.56;63.39
23899;BME280;20544;50.018;20.010;2022-07-29T15:51:41;98812.02;;;25.56;63.79
23899;BME280;20544;50.018;20.010;2022-07-29T15:54:58;98818.56;;;25.55;63.49
23899;BME280;20544;50.018;20.010;2022-07-29T15:58:15;98819.64;;;25.54;64.07
23899;BME280;20544;50.018;20.010;2022-07-29T16:01:31;98830.76;;;25.52;63.92
23899;BME280;20544;50.018;20.010;2022-07-29T16:04:50;98829.96;;;25.51;64.25
23899;BME280;20544;50.018;20.010;2022-07-29T16:08:08;98842.73;;;25.51;64.15
23899;BME280;20544;50.018;20.010;2022-07-29T16:11:25;98848.42;;;25.49;64.46
23899;BME280;20544;50.018;20.010;2022-07-29T16:14:41;98850.63;;;25.47;64.79
23899;BME280;20544;50.018;20.010;2022-07-29T16:17:59;98861.48;;;25.47;70.33
23899;BME280;20544;50.018;20.010;2022-07-29T16:21:18;98872.10;;;25.39;69.37
23899;BME280;20544;50.018;20.010;2022-07-29T16:24:33;98909.56;;;25.26;71.01
23899;BME280;20544;50.018;20.010;2022-07-29T16:27:49;98905.56;;;24.62;74.91
23899;BME280;20544;50.018;20.010;2022-07-29T16:31:07;98922.01;;;23.93;81.68
23899;BME280;20544;50.018;20.010;2022-07-29T16:34:24;98936.05;;;23.26;86.47
23899;BME280;20544;50.018;20.010;2022-07-29T16:37:44;98927.08;;;22.83;91.36
23899;BME280;20544;50.018;20.010;2022-07-29T16:41:49;98919.73;;;22.19;95.21
23899;BME280;20544;50.018;20.010;2022-07-29T16:45:32;98927.06;;;21.96;99.50
23899;BME280;20544;50.018;20.010;2022-07-29T16:49:13;98921.52;;;21.58;100.00
23899;BME280;20544;50.018;20.010;2022-07-29T16:52:56;98924.90;;;21.31;100.00
23899;BME280;20544;50.018;20.010;2022-07-29T16:56:42;98926.30;;;21.17;100.00
23899;BME280;20544;50.018;20.010;2022-07-29T17:00:09;98926.50;;;20.93;100.00
23899;BME280;20544;50.018;20.010;2022-07-29T17:03:44;98927.73;;;20.85;100.00
23899;BME280;20544;50.018;20.010;2022-07-29T17:13:33;98926.23;;;20.44;100.00
23899;BME280;20544;50.018;20.010;2022-07-29T17:17:56;98920.84;;;19.98;100.00
23899;BME280;20544;50.018;20.010;2022-07-29T17:21:42;98915.20;;;19.99;100.00
23899;BME280;20544;50.018;20.010;2022-07-29T17:25:27;98907.66;;;19.84;100.00
23899;BME280;20544;50.018;20.010;2022-07-29T17:28:47;98900.05;;;19.81;100.00
23899;BME280;20544;50.018;20.010;2022-07-29T17:35:47;98901.70;;;19.70;100.00
23899;BME280;20544;50.018;20.010;2022-07-29T17:39:23;98893.30;;;19.67;100.00
23899;BME280;20544;50.018;20.010;2022-07-29T17:42:58;98892.00;;;19.69;100.00
23899;BME280;20544;50.018;20.010;2022-07-29T17:46:21;98885.38;;;19.60;100.00
23899;BME280;20544;50.018;20.010;2022-07-29T17:49:50;98881.84;;;19.60;100.00
23899;BME280;20544;50.018;20.010;2022-07-29T17:53:21;98879.06;;;19.54;100.00
23899;BME280;20544;50.018;20.010;2022-07-29T18:00:29;98875.77;;;19.64;100.00
23899;BME280;20544;50.018;20.010;2022-07-29T18:04:01;98875.17;;;19.62;100.00
23899;BME280;20544;50.018;20.010;2022-07-29T18:07:40;98874.92;;;19.64;100.00
23899;BME280;20544;50.018;20.010;2022-07-29T18:10:56;98872.21;;;19.76;100.00
23899;BME280;20544;50.018;20.010;2022-07-29T18:14:15;98880.25;;;19.87;100.00
23899;BME280;20544;50.018;20.010;2022-07-29T18:17:31;98889.25;;;19.93;100.00
23899;BME280;20544;50.018;20.010;2022-07-29T18:20:50;98888.20;;;19.94;100.00
23899;BME280;20544;50.018;20.010;2022-07-29T18:24:07;98892.44;;;19.90;100.00